Terra Ceia Island, Florida
Current Conditions -  °F | °C
As of 7:53 AM on Monday 20 Oct 2014 (Local Time) from KSRQ Reporting Station
Clear Clear  
Wind Chill: 66°   Ceiling: Unl
Heat Index: 66°   Visibility: 10mi
Dew Point: 64°   Wind: 7mph
Humidity: 93%   Direction: 90°E
Pressure: 30.01"   Gusts: NA
Location:  27.5722°N, 82.5932°W
Report Text: KSRQ 201153Z 09006KT 10SM CLR 19/18 A3001 RMK AO2 SLP163 T01890178 10194 20183 52008
Loading
Personal Weather Stations






























Interactive Weather Map
Tropical Storm Tracking
New forecast layout! Learn more

10-Day Weather Forecast

Advertisements
Track Severe Weather on mobile